createdAt,value
2022-12-17T00:00:47.581Z,20.50
2022-12-17T00:01:47.493Z,21.90
2022-12-17T00:02:47.618Z,21.60
2022-12-17T00:03:47.616Z,23.80
2022-12-17T00:04:47.467Z,20.80
2022-12-17T00:05:47.456Z,22.60
2022-12-17T00:06:47.433Z,18.80
2022-12-17T00:07:47.411Z,19.60
2022-12-17T00:08:47.393Z,22.70
2022-12-17T00:09:50.374Z,23.60
2022-12-17T00:10:47.406Z,23.10
2022-12-17T00:11:47.455Z,24.80
2022-12-17T00:12:47.401Z,21.60
2022-12-17T00:13:47.352Z,23.60
2022-12-17T00:14:47.342Z,19.90
2022-12-17T00:15:47.437Z,19.90
2022-12-17T00:16:47.375Z,20.00
2022-12-17T00:17:47.302Z,25.40
2022-12-17T00:18:47.303Z,20.30
2022-12-17T00:19:47.306Z,18.20
2022-12-17T00:20:47.298Z,17.10
2022-12-17T00:21:47.264Z,20.40
2022-12-17T00:22:47.259Z,17.20
2022-12-17T00:23:47.263Z,17.20
2022-12-17T00:24:47.240Z,19.80
2022-12-17T00:25:47.247Z,18.40
2022-12-17T00:26:47.225Z,23.60
2022-12-17T00:27:47.218Z,19.10
2022-12-17T00:28:47.288Z,20.60
2022-12-17T00:29:47.177Z,19.10
2022-12-17T00:30:47.218Z,21.80
2022-12-17T00:31:47.215Z,19.70
2022-12-17T00:32:47.232Z,18.30
2022-12-17T00:33:47.148Z,22.40
2022-12-17T00:34:47.127Z,19.20
2022-12-17T00:35:47.152Z,22.30
2022-12-17T00:36:47.122Z,19.60
2022-12-17T00:37:47.120Z,16.50
2022-12-17T00:38:47.093Z,16.80
2022-12-17T00:39:47.085Z,17.00
2022-12-17T00:40:47.190Z,18.60
2022-12-17T00:41:47.060Z,18.10
2022-12-17T00:42:47.054Z,19.60
2022-12-17T00:43:47.053Z,19.60
2022-12-17T00:44:47.033Z,21.80
2022-12-17T00:45:47.076Z,19.70
2022-12-17T00:46:47.046Z,19.50
2022-12-17T00:47:47.003Z,18.30
2022-12-17T00:48:47.010Z,19.20
2022-12-17T00:49:46.969Z,21.70
2022-12-17T00:50:46.986Z,16.90
2022-12-17T00:51:47.010Z,17.10
2022-12-17T00:52:46.965Z,18.30
2022-12-17T00:53:46.934Z,19.30
2022-12-17T00:54:46.921Z,19.30
2022-12-17T00:55:46.947Z,19.10
2022-12-17T00:56:46.934Z,20.40
2022-12-17T00:57:46.885Z,20.90
2022-12-17T00:58:46.884Z,19.20
2022-12-17T00:59:46.874Z,16.40
2022-12-17T01:00:46.940Z,19.00
2022-12-17T01:01:47.072Z,16.30
2022-12-17T01:02:47.092Z,18.60
2022-12-17T01:03:46.833Z,20.80
2022-12-17T01:04:46.842Z,20.40
2022-12-17T01:05:46.844Z,17.40
2022-12-17T01:06:46.798Z,16.50
2022-12-17T01:07:46.794Z,14.90
2022-12-17T01:08:46.826Z,17.40
2022-12-17T01:09:46.790Z,14.50
2022-12-17T01:10:46.800Z,17.00
2022-12-17T01:11:46.747Z,16.40
2022-12-17T01:12:46.744Z,17.20
2022-12-17T01:13:46.765Z,17.00
2022-12-17T01:14:46.713Z,17.90
2022-12-17T01:15:46.727Z,22.20
2022-12-17T01:16:46.854Z,16.60
2022-12-17T01:17:46.680Z,17.60
2022-12-17T01:18:46.680Z,20.80
2022-12-17T01:19:46.691Z,19.40
2022-12-17T01:20:46.688Z,17.90
2022-12-17T01:21:46.639Z,14.40
2022-12-17T01:22:46.641Z,19.20
2022-12-17T01:23:46.624Z,18.30
2022-12-17T01:24:46.612Z,17.00
2022-12-17T01:25:46.638Z,16.50
2022-12-17T01:26:46.599Z,19.50
2022-12-17T01:27:46.599Z,15.40
2022-12-17T01:28:46.572Z,17.60
2022-12-17T01:29:46.606Z,17.40
2022-12-17T01:30:46.551Z,17.30
2022-12-17T01:31:46.630Z,15.40
2022-12-17T01:32:46.544Z,17.20
2022-12-17T01:33:46.534Z,16.80
2022-12-17T01:34:46.514Z,14.00
2022-12-17T01:35:46.499Z,12.80
2022-12-17T01:36:46.510Z,14.90
2022-12-17T01:37:46.480Z,16.90
2022-12-17T01:38:46.508Z,14.30
2022-12-17T01:39:46.459Z,12.40
2022-12-17T01:40:46.449Z,15.10
2022-12-17T01:41:46.451Z,14.80
2022-12-17T01:42:46.424Z,13.80
2022-12-17T01:43:46.508Z,13.40
2022-12-17T01:44:46.412Z,14.00
2022-12-17T01:45:46.540Z,13.90
2022-12-17T01:46:46.389Z,13.30
2022-12-17T01:47:46.381Z,11.70
2022-12-17T01:48:46.376Z,15.40
2022-12-17T01:49:46.358Z,16.90
2022-12-17T01:50:46.437Z,11.00
2022-12-17T01:51:46.335Z,13.90
2022-12-17T01:52:46.337Z,11.70
2022-12-17T01:53:46.308Z,15.20
2022-12-17T01:54:46.314Z,14.60
2022-12-17T01:55:46.319Z,13.20
2022-12-17T01:56:46.292Z,13.60
2022-12-17T01:57:46.263Z,13.80
2022-12-17T01:58:46.281Z,14.80
2022-12-17T01:59:46.243Z,15.70
2022-12-17T02:00:46.324Z,12.20
2022-12-17T02:01:46.500Z,16.90
2022-12-17T02:02:46.361Z,16.90
2022-12-17T02:03:46.209Z,14.20
2022-12-17T02:04:46.198Z,14.90
2022-12-17T02:05:46.218Z,17.60
2022-12-17T02:06:46.182Z,17.30
2022-12-17T02:07:46.244Z,15.80
2022-12-17T02:08:46.178Z,16.20
2022-12-17T02:09:46.149Z,13.90
2022-12-17T02:10:46.153Z,17.50
2022-12-17T02:11:46.118Z,14.90
2022-12-17T02:12:46.130Z,18.20
2022-12-17T02:13:46.122Z,19.80
2022-12-17T02:14:46.098Z,14.20
2022-12-17T02:15:46.117Z,18.30
2022-12-17T02:16:46.173Z,18.90
2022-12-17T02:17:46.060Z,19.20
2022-12-17T02:18:46.049Z,15.80
2022-12-17T02:19:46.043Z,17.00
2022-12-17T02:20:46.069Z,17.60
2022-12-17T02:21:46.028Z,17.90
2022-12-17T02:22:46.020Z,23.50
2022-12-17T02:23:46.003Z,19.20
2022-12-17T02:24:46.011Z,17.10
2022-12-17T02:25:46.005Z,17.80
2022-12-17T02:26:45.994Z,13.20
2022-12-17T02:27:46.207Z,14.70
2022-12-17T02:28:46.020Z,13.80
2022-12-17T02:29:45.949Z,17.50
2022-12-17T02:30:45.929Z,15.80
2022-12-17T02:31:45.987Z,16.80
2022-12-17T02:32:45.908Z,16.10
2022-12-17T02:33:45.897Z,14.40
2022-12-17T02:34:45.929Z,17.10
2022-12-17T02:35:45.905Z,22.90
2022-12-17T02:36:45.868Z,16.20
2022-12-17T02:37:45.852Z,15.50
2022-12-17T02:38:45.883Z,16.30
2022-12-17T02:39:45.876Z,12.20
2022-12-17T02:40:45.895Z,15.70
2022-12-17T02:41:45.826Z,11.50
2022-12-17T02:42:45.912Z,13.30
2022-12-17T02:43:45.791Z,11.20
2022-12-17T02:44:45.784Z,11.30
2022-12-17T02:45:45.811Z,13.00
2022-12-17T02:46:45.763Z,9.80
2022-12-17T02:47:45.748Z,12.30
2022-12-17T02:48:45.736Z,12.10
2022-12-17T02:49:45.747Z,11.90
2022-12-17T02:50:45.743Z,11.30
2022-12-17T02:51:45.730Z,11.60
2022-12-17T02:52:45.697Z,12.80
2022-12-17T02:53:45.689Z,12.80
2022-12-17T02:54:45.704Z,11.80
2022-12-17T02:55:45.708Z,14.70
2022-12-17T02:56:45.673Z,10.40
2022-12-17T02:57:48.499Z,11.60
2022-12-17T02:58:46.653Z,12.10
2022-12-17T02:59:45.646Z,10.70
2022-12-17T03:00:45.642Z,9.60
2022-12-17T03:01:45.744Z,12.10
2022-12-17T03:02:45.757Z,8.10
2022-12-17T03:03:50.093Z,9.90
2022-12-17T03:04:45.633Z,8.00
2022-12-17T03:05:46.160Z,8.30
2022-12-17T03:06:45.559Z,6.70
2022-12-17T03:07:45.545Z,6.80
2022-12-17T03:08:45.581Z,5.00
2022-12-17T03:09:45.537Z,5.70
2022-12-17T03:10:45.545Z,4.90
2022-12-17T03:11:45.511Z,6.40
2022-12-17T03:12:45.633Z,5.30
2022-12-17T03:13:45.495Z,8.20
2022-12-17T03:14:45.544Z,6.40
2022-12-17T03:15:45.487Z,4.40
2022-12-17T03:16:45.536Z,5.20
2022-12-17T03:17:45.445Z,7.20
2022-12-17T03:18:45.470Z,5.90
2022-12-17T03:19:45.447Z,6.60
2022-12-17T03:20:45.418Z,6.70
2022-12-17T03:21:45.402Z,4.80
2022-12-17T03:22:45.395Z,4.20
2022-12-17T03:23:45.391Z,4.40
2022-12-17T03:24:45.388Z,6.90
2022-12-17T03:25:45.392Z,6.00
2022-12-17T03:26:45.356Z,4.20
2022-12-17T03:27:45.396Z,4.50
2022-12-17T03:28:45.354Z,4.80
2022-12-17T03:29:45.318Z,6.00
2022-12-17T03:30:48.867Z,4.80
2022-12-17T03:31:45.347Z,6.60
2022-12-17T03:32:45.302Z,9.50
2022-12-17T03:33:45.281Z,6.30
2022-12-17T03:34:45.326Z,9.10
2022-12-17T03:35:45.553Z,8.50
2022-12-17T03:36:45.258Z,15.20
2022-12-17T03:37:45.244Z,11.80
2022-12-17T03:38:45.277Z,13.80
2022-12-17T03:39:45.218Z,13.30
2022-12-17T03:40:45.215Z,17.80
2022-12-17T03:41:45.201Z,16.30
2022-12-17T03:42:45.186Z,22.60
2022-12-17T03:43:45.175Z,17.10
2022-12-17T03:44:45.172Z,15.90
2022-12-17T03:45:45.239Z,16.30
2022-12-17T03:46:45.140Z,21.00
2022-12-17T03:47:45.146Z,22.90
2022-12-17T03:48:45.148Z,15.20
2022-12-17T03:49:45.117Z,17.20
2022-12-17T03:50:45.115Z,18.50
2022-12-17T03:51:45.098Z,16.20
2022-12-17T03:52:45.088Z,16.80
2022-12-17T03:53:45.068Z,19.40
2022-12-17T03:54:45.059Z,14.00
2022-12-17T03:55:45.123Z,14.90
2022-12-17T03:56:45.043Z,15.60
2022-12-17T03:57:45.024Z,13.40
2022-12-17T03:58:45.040Z,17.40
2022-12-17T03:59:45.022Z,16.60
2022-12-17T04:00:45.036Z,18.40
2022-12-17T04:01:45.179Z,15.60
2022-12-17T04:02:45.206Z,13.50
2022-12-17T04:03:45.052Z,15.10
2022-12-17T04:04:44.961Z,14.20
2022-12-17T04:05:44.964Z,14.60
2022-12-17T04:06:44.941Z,16.00
2022-12-17T04:07:44.929Z,13.10
2022-12-17T04:08:44.917Z,19.40
2022-12-17T04:09:44.907Z,15.50
2022-12-17T04:10:44.923Z,14.00
2022-12-17T04:11:44.958Z,15.80
2022-12-17T04:12:44.864Z,15.70
2022-12-17T04:13:45.188Z,21.60
2022-12-17T04:14:44.857Z,16.50
2022-12-17T04:15:44.925Z,14.30
2022-12-17T04:16:44.846Z,22.00
2022-12-17T04:17:44.823Z,16.00
2022-12-17T04:18:44.823Z,19.60
2022-12-17T04:19:44.829Z,17.50
2022-12-17T04:20:44.810Z,15.80
2022-12-17T04:21:44.778Z,15.80
2022-12-17T04:22:44.819Z,15.10
2022-12-17T04:23:44.761Z,17.90
2022-12-17T04:24:44.747Z,21.30
2022-12-17T04:25:44.755Z,16.50
2022-12-17T04:26:44.733Z,26.50
2022-12-17T04:27:44.716Z,18.60
2022-12-17T04:28:44.711Z,16.40
2022-12-17T04:29:44.698Z,20.50
2022-12-17T04:30:44.720Z,21.80
2022-12-17T04:31:44.669Z,26.10
2022-12-17T04:32:44.677Z,16.90
2022-12-17T04:33:44.656Z,22.20
2022-12-17T04:34:44.683Z,24.60
2022-12-17T04:35:44.660Z,17.30
2022-12-17T04:36:44.624Z,17.40
2022-12-17T04:37:44.646Z,20.20
2022-12-17T04:38:44.604Z,21.90
2022-12-17T04:39:44.609Z,16.30
2022-12-17T04:40:44.702Z,13.90
2022-12-17T04:41:44.603Z,32.50
2022-12-17T04:42:44.570Z,24.30
2022-12-17T04:43:44.579Z,25.90
2022-12-17T04:44:44.537Z,22.10
2022-12-17T04:45:44.558Z,19.20
2022-12-17T04:46:44.563Z,9.30
2022-12-17T04:47:44.530Z,11.50
2022-12-17T04:48:44.542Z,13.10
2022-12-17T04:49:44.501Z,12.40
2022-12-17T04:50:44.491Z,8.00
2022-12-17T04:51:44.464Z,7.00
2022-12-17T04:52:44.486Z,5.80
2022-12-17T04:53:44.454Z,5.90
2022-12-17T04:54:44.438Z,7.10
2022-12-17T04:55:44.463Z,7.60
2022-12-17T04:56:44.436Z,5.80
2022-12-17T04:57:44.407Z,4.50
2022-12-17T04:58:44.424Z,5.60
2022-12-17T04:59:44.408Z,5.10
2022-12-17T05:00:44.376Z,4.60
2022-12-17T05:01:44.470Z,4.70
2022-12-17T05:02:44.581Z,6.80
2022-12-17T05:03:44.424Z,4.00
2022-12-17T05:04:44.363Z,6.50
2022-12-17T05:05:44.325Z,5.40
2022-12-17T05:06:44.313Z,5.00
2022-12-17T05:07:44.356Z,4.30
2022-12-17T05:08:44.305Z,5.40
2022-12-17T05:09:44.311Z,5.10
2022-12-17T05:10:44.280Z,4.10
2022-12-17T05:11:44.261Z,3.90
2022-12-17T05:12:44.269Z,5.00
2022-12-17T05:13:44.275Z,4.40
2022-12-17T05:14:44.297Z,5.00
2022-12-17T05:15:48.361Z,4.20
2022-12-17T05:16:45.212Z,4.50
2022-12-17T05:17:44.200Z,7.10
2022-12-17T05:18:44.190Z,6.40
2022-12-17T05:19:44.180Z,9.30
2022-12-17T05:20:44.211Z,10.10
2022-12-17T05:21:44.159Z,13.50
2022-12-17T05:22:44.151Z,12.50
2022-12-17T05:23:44.138Z,10.00
2022-12-17T05:24:44.125Z,11.00
2022-12-17T05:25:44.133Z,8.30
2022-12-17T05:26:44.125Z,9.70
2022-12-17T05:27:44.106Z,12.30
2022-12-17T05:28:44.091Z,12.00
2022-12-17T05:29:44.086Z,14.80
2022-12-17T05:30:44.204Z,12.00
2022-12-17T05:31:44.170Z,10.20
2022-12-17T05:32:44.039Z,10.10
2022-12-17T05:33:44.022Z,10.90
2022-12-17T05:34:44.020Z,15.50
2022-12-17T05:35:44.057Z,19.10
2022-12-17T05:36:44.008Z,10.10
2022-12-17T05:37:44.007Z,9.00
2022-12-17T05:38:43.983Z,14.60
2022-12-17T05:39:43.966Z,10.50
2022-12-17T05:40:43.985Z,10.20
2022-12-17T05:41:43.944Z,9.90
2022-12-17T05:42:43.934Z,12.00
2022-12-17T05:43:43.959Z,9.40
2022-12-17T05:44:43.909Z,7.50
2022-12-17T05:45:43.979Z,7.80
2022-12-17T05:46:43.962Z,9.20
2022-12-17T05:47:43.886Z,8.70
2022-12-17T05:48:43.887Z,7.80
2022-12-17T05:49:43.880Z,7.60
2022-12-17T05:50:43.882Z,6.50
2022-12-17T05:51:43.873Z,7.20
2022-12-17T05:52:43.849Z,9.90
2022-12-17T05:53:43.840Z,7.60
2022-12-17T05:54:43.813Z,9.30
2022-12-17T05:55:43.828Z,10.90
2022-12-17T05:56:43.786Z,7.30
2022-12-17T05:57:43.773Z,9.80
2022-12-17T05:58:43.775Z,8.90
2022-12-17T05:59:43.764Z,6.70
2022-12-17T06:00:43.815Z,9.00
2022-12-17T06:01:43.807Z,12.00
2022-12-17T06:02:43.869Z,8.40
2022-12-17T06:03:44.030Z,13.30
2022-12-17T06:04:43.709Z,8.00
2022-12-17T06:05:43.781Z,7.60
2022-12-17T06:06:43.704Z,11.70
2022-12-17T06:07:43.678Z,9.20
2022-12-17T06:08:43.688Z,8.00
2022-12-17T06:09:43.659Z,8.50
2022-12-17T06:10:43.659Z,7.90
2022-12-17T06:11:43.637Z,7.70
2022-12-17T06:12:43.668Z,9.00
2022-12-17T06:13:43.637Z,9.00
2022-12-17T06:14:43.602Z,10.60
2022-12-17T06:15:43.698Z,9.60
2022-12-17T06:16:43.628Z,8.60
2022-12-17T06:17:43.599Z,11.60
2022-12-17T06:18:43.568Z,11.00
2022-12-17T06:19:43.580Z,15.20
2022-12-17T06:20:43.579Z,21.80
2022-12-17T06:21:43.531Z,13.50
2022-12-17T06:22:43.559Z,13.80
2022-12-17T06:23:43.525Z,13.90
2022-12-17T06:24:46.116Z,10.70
2022-12-17T06:25:43.534Z,13.20
2022-12-17T06:26:43.504Z,10.40
2022-12-17T06:27:43.486Z,14.80
2022-12-17T06:28:43.466Z,13.60
2022-12-17T06:29:43.489Z,17.00
2022-12-17T06:30:43.497Z,12.40
2022-12-17T06:31:43.502Z,13.40
2022-12-17T06:32:43.442Z,13.60
2022-12-17T06:33:43.426Z,13.80
2022-12-17T06:34:43.407Z,11.10
2022-12-17T06:35:43.443Z,15.20
2022-12-17T06:36:43.400Z,20.40
2022-12-17T06:37:43.379Z,12.00
2022-12-17T06:38:43.372Z,12.10
2022-12-17T06:39:43.372Z,12.80
2022-12-17T06:40:43.372Z,14.70
2022-12-17T06:41:43.332Z,13.30
2022-12-17T06:42:43.339Z,8.20
2022-12-17T06:43:43.337Z,10.80
2022-12-17T06:44:43.306Z,14.60
2022-12-17T06:45:43.371Z,14.10
2022-12-17T06:46:43.333Z,13.50
2022-12-17T06:47:43.333Z,11.40
2022-12-17T06:48:43.282Z,14.90
2022-12-17T06:49:43.270Z,17.10
2022-12-17T06:50:43.276Z,12.70
2022-12-17T06:51:43.243Z,10.00
2022-12-17T06:52:43.238Z,7.30
2022-12-17T06:53:43.230Z,9.40
2022-12-17T06:54:43.221Z,10.20
2022-12-17T06:55:43.280Z,10.90
2022-12-17T06:56:43.229Z,8.70
2022-12-17T06:57:46.253Z,8.70
2022-12-17T06:58:44.209Z,12.00
2022-12-17T06:59:43.158Z,11.40
2022-12-17T07:00:43.196Z,10.60
2022-12-17T07:01:43.423Z,11.90
2022-12-17T07:02:43.320Z,18.10
2022-12-17T07:03:43.134Z,11.90
2022-12-17T07:04:43.108Z,15.10
2022-12-17T07:05:43.115Z,11.90
2022-12-17T07:06:43.095Z,13.60
2022-12-17T07:07:43.082Z,11.40
2022-12-17T07:08:43.072Z,13.90
2022-12-17T07:09:43.053Z,12.00
2022-12-17T07:10:43.066Z,17.90
2022-12-17T07:11:43.112Z,13.00
2022-12-17T07:12:43.044Z,15.00
2022-12-17T07:13:43.019Z,20.90
2022-12-17T07:14:43.001Z,14.90
2022-12-17T07:15:43.063Z,18.40
2022-12-17T07:16:43.070Z,17.00
2022-12-17T07:17:42.973Z,12.80
2022-12-17T07:18:42.969Z,14.70
2022-12-17T07:19:42.954Z,18.70
2022-12-17T07:20:43.005Z,17.50
2022-12-17T07:21:42.954Z,15.80
2022-12-17T07:22:42.937Z,19.30
2022-12-17T07:23:42.920Z,17.80
2022-12-17T07:24:42.929Z,17.20
2022-12-17T07:25:46.167Z,17.00
2022-12-17T07:26:42.882Z,14.60
2022-12-17T07:27:42.894Z,15.00
2022-12-17T07:28:42.886Z,10.90
2022-12-17T07:29:42.895Z,16.70
2022-12-17T07:30:42.867Z,14.10
2022-12-17T07:31:42.906Z,17.80
2022-12-17T07:32:42.826Z,14.00
2022-12-17T07:33:42.824Z,14.90
2022-12-17T07:34:42.808Z,11.00
2022-12-17T07:35:42.802Z,11.40
2022-12-17T07:36:42.803Z,15.70
2022-12-17T07:37:42.790Z,13.20
2022-12-17T07:38:42.766Z,16.60
2022-12-17T07:39:42.748Z,11.70
2022-12-17T07:40:42.815Z,12.60
2022-12-17T07:41:42.739Z,11.60
2022-12-17T07:42:42.772Z,13.30
2022-12-17T07:43:44.249Z,18.30
2022-12-17T07:44:42.708Z,13.20
2022-12-17T07:45:42.741Z,13.40
2022-12-17T07:46:42.678Z,11.40
2022-12-17T07:47:42.701Z,11.00
2022-12-17T07:48:42.712Z,13.50
2022-12-17T07:49:42.688Z,14.50
2022-12-17T07:50:42.657Z,9.40
2022-12-17T07:51:42.624Z,10.50
2022-12-17T07:52:42.627Z,13.80
2022-12-17T07:53:42.659Z,12.60
2022-12-17T07:54:42.598Z,10.10
2022-12-17T07:55:42.600Z,11.10
2022-12-17T07:56:42.583Z,8.20
2022-12-17T07:57:42.589Z,11.00
2022-12-17T07:58:42.558Z,11.70
2022-12-17T07:59:42.549Z,13.00
2022-12-17T08:00:47.581Z,9.90
2022-12-17T08:01:43.686Z,13.30
2022-12-17T08:02:42.665Z,11.00
2022-12-17T08:03:42.717Z,11.90
2022-12-17T08:04:42.489Z,10.80
2022-12-17T08:05:42.509Z,8.80
2022-12-17T08:06:42.514Z,10.30
2022-12-17T08:07:42.465Z,11.20
2022-12-17T08:08:42.474Z,13.40
2022-12-17T08:09:42.446Z,9.60
2022-12-17T08:10:42.437Z,13.60
2022-12-17T08:11:42.428Z,10.30
2022-12-17T08:12:42.414Z,9.70
2022-12-17T08:13:42.447Z,8.70
2022-12-17T08:14:42.388Z,10.80
2022-12-17T08:15:42.438Z,8.80
2022-12-17T08:16:42.442Z,9.20
2022-12-17T08:17:42.368Z,14.90
2022-12-17T08:18:42.353Z,11.90
2022-12-17T08:19:42.333Z,10.50
2022-12-17T08:20:42.358Z,12.10
2022-12-17T08:21:42.381Z,12.30
2022-12-17T08:22:42.301Z,10.10
2022-12-17T08:23:42.307Z,13.50
2022-12-17T08:24:42.283Z,18.00
2022-12-17T08:25:42.320Z,15.70
2022-12-17T08:26:47.501Z,17.20
2022-12-17T08:27:43.355Z,17.50
2022-12-17T08:28:50.526Z,15.10
2022-12-17T08:29:43.582Z,20.80
2022-12-17T08:30:42.352Z,16.10
2022-12-17T08:31:42.215Z,17.20
2022-12-17T08:32:42.223Z,20.20
2022-12-17T08:33:42.213Z,17.60
2022-12-17T08:34:42.196Z,12.20
2022-12-17T08:35:42.213Z,15.30
2022-12-17T08:36:42.171Z,13.10
2022-12-17T08:37:42.156Z,19.10
2022-12-17T08:38:42.154Z,12.30
2022-12-17T08:39:42.153Z,17.20
2022-12-17T08:40:42.140Z,10.50
2022-12-17T08:41:42.131Z,10.50
2022-12-17T08:42:42.114Z,14.20
2022-12-17T08:43:42.097Z,16.60
2022-12-17T08:44:42.097Z,12.50
2022-12-17T08:45:42.170Z,12.10
2022-12-17T08:46:42.088Z,16.10
2022-12-17T08:47:42.055Z,17.40
2022-12-17T08:48:42.055Z,12.30
2022-12-17T08:49:42.049Z,13.50
2022-12-17T08:50:42.056Z,10.90
2022-12-17T08:51:42.008Z,18.10
2022-12-17T08:52:41.999Z,15.30
2022-12-17T08:53:42.542Z,21.40
2022-12-17T08:54:41.998Z,14.60
2022-12-17T08:55:42.046Z,15.50
2022-12-17T08:56:42.013Z,11.60
2022-12-17T08:57:41.943Z,17.00
2022-12-17T08:58:41.940Z,12.10
2022-12-17T08:59:41.959Z,17.60
2022-12-17T09:00:41.937Z,14.40
2022-12-17T09:01:42.017Z,10.70
2022-12-17T09:02:42.076Z,14.00
2022-12-17T09:03:42.090Z,12.30
2022-12-17T09:04:42.895Z,12.50
2022-12-17T09:05:41.873Z,12.40
2022-12-17T09:06:41.867Z,11.20
2022-12-17T09:07:41.878Z,10.30
2022-12-17T09:08:41.877Z,13.40
2022-12-17T09:09:41.820Z,13.40
2022-12-17T09:10:41.831Z,12.30
2022-12-17T09:11:41.820Z,12.60
2022-12-17T09:12:41.846Z,17.40
2022-12-17T09:13:41.791Z,13.40
2022-12-17T09:14:41.834Z,13.20
2022-12-17T09:15:41.805Z,18.70
2022-12-17T09:16:41.902Z,12.40
2022-12-17T09:17:41.746Z,13.20
2022-12-17T09:18:41.795Z,14.00
2022-12-17T09:19:41.826Z,14.20
2022-12-17T09:20:41.750Z,15.70
2022-12-17T09:21:41.706Z,13.00
2022-12-17T09:22:41.730Z,14.70
2022-12-17T09:23:41.702Z,20.30
2022-12-17T09:24:41.689Z,17.00
2022-12-17T09:25:41.685Z,11.80
2022-12-17T09:26:41.676Z,14.10
2022-12-17T09:27:41.663Z,11.60
2022-12-17T09:28:41.621Z,9.30
2022-12-17T09:29:41.615Z,8.50
2022-12-17T09:30:41.721Z,9.80
2022-12-17T09:31:41.678Z,11.90
2022-12-17T09:32:41.600Z,13.60
2022-12-17T09:33:41.572Z,13.40
2022-12-17T09:34:41.568Z,13.90
2022-12-17T09:35:41.576Z,11.20
2022-12-17T09:36:44.271Z,13.80
2022-12-17T09:37:42.543Z,12.50
2022-12-17T09:38:41.524Z,13.80
2022-12-17T09:39:41.521Z,19.80
2022-12-17T09:40:41.571Z,13.80
2022-12-17T09:41:41.496Z,10.80
2022-12-17T09:42:45.521Z,14.30
2022-12-17T09:43:42.471Z,22.70
2022-12-17T09:44:41.472Z,14.00
2022-12-17T09:45:41.475Z,16.90
2022-12-17T09:46:41.594Z,16.50
2022-12-17T09:47:41.435Z,12.70
2022-12-17T09:48:41.433Z,10.40
2022-12-17T09:49:41.422Z,14.70
2022-12-17T09:50:41.426Z,11.80
2022-12-17T09:51:41.400Z,10.70
2022-12-17T09:52:41.398Z,16.00
2022-12-17T09:53:41.371Z,13.70
2022-12-17T09:54:41.374Z,14.50
2022-12-17T09:55:41.381Z,14.50
2022-12-17T09:56:41.455Z,18.00
2022-12-17T09:57:41.362Z,19.40
2022-12-17T09:58:41.327Z,11.60
2022-12-17T09:59:41.316Z,13.40
2022-12-17T10:00:41.355Z,14.50
2022-12-17T10:01:41.455Z,14.00
2022-12-17T10:02:41.552Z,18.50
2022-12-17T10:03:41.879Z,14.20
2022-12-17T10:04:41.278Z,17.20
2022-12-17T10:05:41.246Z,16.40
2022-12-17T10:06:41.418Z,15.20
2022-12-17T10:07:41.229Z,11.90
2022-12-17T10:08:41.248Z,12.90
2022-12-17T10:09:41.236Z,13.60
2022-12-17T10:10:41.233Z,13.10
2022-12-17T10:11:41.195Z,16.40
2022-12-17T10:12:41.176Z,16.40
2022-12-17T10:13:41.187Z,14.30
2022-12-17T10:14:41.163Z,13.80
2022-12-17T10:15:41.266Z,13.80
2022-12-17T10:16:41.128Z,11.40
2022-12-17T10:17:41.255Z,17.60
2022-12-17T10:18:41.156Z,17.50
2022-12-17T10:19:41.105Z,19.00
2022-12-17T10:20:41.109Z,17.10
2022-12-17T10:21:41.218Z,21.00
2022-12-17T10:22:41.075Z,16.20
2022-12-17T10:23:41.060Z,12.30
2022-12-17T10:24:41.074Z,16.10
2022-12-17T10:25:41.052Z,16.50
2022-12-17T10:26:41.032Z,17.10
2022-12-17T10:27:41.022Z,19.80
2022-12-17T10:28:41.003Z,15.80
2022-12-17T10:29:45.698Z,19.30
2022-12-17T10:30:42.085Z,16.30
2022-12-17T10:31:41.178Z,20.40
2022-12-17T10:32:40.981Z,17.50
2022-12-17T10:33:40.981Z,17.60
2022-12-17T10:34:40.953Z,18.70
2022-12-17T10:35:40.965Z,17.90
2022-12-17T10:36:40.917Z,22.00
2022-12-17T10:37:40.928Z,24.80
2022-12-17T10:38:40.918Z,18.90
2022-12-17T10:39:40.888Z,20.30
2022-12-17T10:40:40.918Z,22.40
2022-12-17T10:41:40.905Z,20.10
2022-12-17T10:42:40.857Z,15.90
2022-12-17T10:43:40.849Z,17.00
2022-12-17T10:44:40.842Z,18.00
2022-12-17T10:45:40.864Z,19.30
2022-12-17T10:46:40.914Z,23.30
2022-12-17T10:47:40.810Z,18.60
2022-12-17T10:48:40.803Z,21.20
2022-12-17T10:49:40.788Z,21.10
2022-12-17T10:50:40.811Z,17.70
2022-12-17T10:51:40.768Z,17.70
2022-12-17T10:52:40.816Z,21.50
2022-12-17T10:53:40.766Z,23.60
2022-12-17T10:54:43.995Z,20.80
2022-12-17T10:55:41.746Z,17.30
2022-12-17T10:56:40.758Z,18.80
2022-12-17T10:57:40.712Z,17.10
2022-12-17T10:58:40.686Z,17.40
2022-12-17T10:59:40.744Z,18.30
2022-12-17T11:00:45.691Z,21.70
2022-12-17T11:01:41.857Z,27.10
2022-12-17T11:02:40.870Z,23.70
2022-12-17T11:03:40.838Z,27.30
2022-12-17T11:04:40.641Z,22.90
2022-12-17T11:05:40.693Z,21.70
2022-12-17T11:06:42.717Z,18.40
2022-12-17T11:07:40.641Z,20.00
2022-12-17T11:08:40.704Z,19.60
2022-12-17T11:09:40.788Z,19.40
2022-12-17T11:10:40.675Z,22.80
2022-12-17T11:11:40.551Z,18.80
2022-12-17T11:12:40.563Z,17.10
2022-12-17T11:13:40.630Z,22.10
2022-12-17T11:14:40.536Z,21.60
2022-12-17T11:15:40.670Z,20.10
2022-12-17T11:16:40.507Z,19.40
2022-12-17T11:17:40.512Z,20.70
2022-12-17T11:18:40.568Z,22.00
2022-12-17T11:19:40.474Z,19.20
2022-12-17T11:20:40.492Z,20.00
2022-12-17T11:21:40.466Z,21.10
2022-12-17T11:22:40.455Z,22.20
2022-12-17T11:23:40.480Z,25.60
2022-12-17T11:24:40.478Z,21.70
2022-12-17T11:25:40.463Z,21.70
2022-12-17T11:26:40.417Z,23.00
2022-12-17T11:27:40.546Z,18.50
2022-12-17T11:28:40.427Z,19.50
2022-12-17T11:29:40.393Z,21.00
2022-12-17T11:30:40.363Z,18.50
2022-12-17T11:31:40.423Z,23.90
2022-12-17T11:32:40.345Z,18.60
2022-12-17T11:33:40.463Z,20.80
2022-12-17T11:34:40.367Z,20.20
2022-12-17T11:35:40.438Z,20.50
2022-12-17T11:36:40.351Z,20.90
2022-12-17T11:37:40.285Z,20.10
2022-12-17T11:38:40.510Z,19.50
2022-12-17T11:39:40.271Z,18.40
2022-12-17T11:40:40.271Z,19.80
2022-12-17T11:41:40.271Z,21.80
2022-12-17T11:42:40.265Z,21.40
2022-12-17T11:43:40.284Z,20.70
2022-12-17T11:44:40.339Z,20.30
2022-12-17T11:45:40.413Z,18.40
2022-12-17T11:46:40.234Z,21.90
2022-12-17T11:47:40.186Z,17.10
2022-12-17T11:48:40.489Z,17.80
2022-12-17T11:49:40.165Z,18.50
2022-12-17T11:50:40.194Z,18.00
2022-12-17T11:51:40.190Z,19.20
2022-12-17T11:52:40.169Z,18.10
2022-12-17T11:53:40.229Z,19.90
2022-12-17T11:54:40.162Z,21.20
2022-12-17T11:55:40.104Z,20.30
2022-12-17T11:56:40.113Z,21.70
2022-12-17T11:57:40.082Z,18.70
2022-12-17T11:58:40.209Z,20.30
2022-12-17T11:59:40.081Z,20.60
2022-12-17T12:00:40.188Z,21.70
2022-12-17T12:01:40.170Z,20.50
2022-12-17T12:02:40.172Z,20.90
2022-12-17T12:03:40.121Z,21.30
2022-12-17T12:04:40.028Z,20.50
2022-12-17T12:05:39.991Z,17.60
2022-12-17T12:06:39.991Z,16.30
2022-12-17T12:07:40.048Z,21.40
2022-12-17T12:08:40.158Z,19.30
2022-12-17T12:09:39.963Z,19.50
2022-12-17T12:10:40.000Z,19.10
2022-12-17T12:11:40.237Z,18.00
2022-12-17T12:12:39.989Z,20.50
2022-12-17T12:13:39.923Z,18.60
2022-12-17T12:14:39.909Z,21.60
2022-12-17T12:15:39.955Z,20.80
2022-12-17T12:16:43.702Z,19.10
2022-12-17T12:17:39.964Z,21.10
2022-12-17T12:18:40.299Z,23.60
2022-12-17T12:19:39.905Z,24.40
2022-12-17T12:20:39.995Z,22.10
2022-12-17T12:21:39.848Z,20.00
2022-12-17T12:22:39.816Z,21.00
2022-12-17T12:23:39.810Z,22.90
2022-12-17T12:24:39.837Z,19.70
2022-12-17T12:25:39.809Z,21.50
2022-12-17T12:26:39.773Z,21.50
2022-12-17T12:27:42.858Z,25.80
2022-12-17T12:28:40.070Z,28.20
2022-12-17T12:29:39.858Z,24.30
2022-12-17T12:30:39.771Z,25.50
2022-12-17T12:31:39.782Z,24.10
2022-12-17T12:32:39.733Z,25.90
2022-12-17T12:33:39.717Z,25.70
2022-12-17T12:34:39.760Z,29.80
2022-12-17T12:35:39.717Z,27.60
2022-12-17T12:36:39.677Z,23.30
2022-12-17T12:37:39.900Z,23.90
2022-12-17T12:38:45.663Z,25.10
2022-12-17T12:39:40.693Z,25.40
2022-12-17T12:40:39.655Z,26.60
2022-12-17T12:41:39.627Z,26.30
2022-12-17T12:42:39.620Z,24.20
2022-12-17T12:43:39.679Z,25.40
2022-12-17T12:44:39.610Z,27.80
2022-12-17T12:45:39.707Z,25.90
2022-12-17T12:46:39.575Z,20.50
2022-12-17T12:47:39.670Z,26.30
2022-12-17T12:48:39.791Z,25.70
2022-12-17T12:49:39.561Z,26.70
2022-12-17T12:50:39.555Z,28.30
2022-12-17T12:51:39.517Z,25.40
2022-12-17T12:52:39.506Z,22.70
2022-12-17T12:53:39.499Z,22.00
2022-12-17T12:54:39.536Z,22.50
2022-12-17T12:55:39.642Z,28.00
2022-12-17T12:56:39.674Z,38.90